sensor_id;sensor_type;location;lat;lon;timestamp;temperature;humidity
34542;DHT22;20784;51.332;12.410;2023-03-23T00:01:12;14.30;99.90
34542;DHT22;20784;51.332;12.410;2023-03-23T00:03:45;14.40;99.90
34542;DHT22;20784;51.332;12.410;2023-03-23T00:06:11;14.30;99.90
34542;DHT22;20784;51.332;12.410;2023-03-23T00:08:48;14.30;99.90
34542;DHT22;20784;51.332;12.410;2023-03-23T00:11:19;14.30;99.90
34542;DHT22;20784;51.332;12.410;2023-03-23T00:13:47;14.20;99.90
34542;DHT22;20784;51.332;12.410;2023-03-23T00:16:17;14.30;99.90
34542;DHT22;20784;51.332;12.410;2023-03-23T00:18:48;14.30;99.90
34542;DHT22;20784;51.332;12.410;2023-03-23T00:21:19;14.20;99.90
34542;DHT22;20784;51.332;12.410;2023-03-23T00:23:45;14.20;99.90
34542;DHT22;20784;51.332;12.410;2023-03-23T00:26:11;14.20;99.90
34542;DHT22;20784;51.332;12.410;2023-03-23T00:28:37;14.20;99.90
34542;DHT22;20784;51.332;12.410;2023-03-23T00:31:06;14.30;99.90
34542;DHT22;20784;51.332;12.410;2023-03-23T00:33:35;14.30;99.90
34542;DHT22;20784;51.332;12.410;2023-03-23T00:36:11;14.30;99.90
34542;DHT22;20784;51.332;12.410;2023-03-23T00:38:37;14.30;99.90
34542;DHT22;20784;51.332;12.410;2023-03-23T00:41:04;14.30;99.90
34542;DHT22;20784;51.332;12.410;2023-03-23T00:43:31;14.40;99.90
34542;DHT22;20784;51.332;12.410;2023-03-23T00:45:58;14.30;99.90
34542;DHT22;20784;51.332;12.410;2023-03-23T00:48:27;14.40;99.90
34542;DHT22;20784;51.332;12.410;2023-03-23T00:50:53;14.40;99.90
34542;DHT22;20784;51.332;12.410;2023-03-23T00:53:19;14.30;99.90
34542;DHT22;20784;51.332;12.410;2023-03-23T00:55:46;14.30;99.90
34542;DHT22;20784;51.332;12.410;2023-03-23T00:58:13;14.30;99.90
34542;DHT22;20784;51.332;12.410;2023-03-23T01:00:39;14.30;99.90
34542;DHT22;20784;51.332;12.410;2023-03-23T01:03:06;14.30;99.90
34542;DHT22;20784;51.332;12.410;2023-03-23T01:05:36;14.20;99.90
34542;DHT22;20784;51.332;12.410;2023-03-23T01:08:02;14.30;99.90
34542;DHT22;20784;51.332;12.410;2023-03-23T01:10:28;14.30;99.90
34542;DHT22;20784;51.332;12.410;2023-03-23T01:12:54;14.30;99.90
34542;DHT22;20784;51.332;12.410;2023-03-23T01:15:20;14.30;99.90
34542;DHT22;20784;51.332;12.410;2023-03-23T01:17:46;14.20;99.90
34542;DHT22;20784;51.332;12.410;2023-03-23T01:20:14;14.10;99.90
34542;DHT22;20784;51.332;12.410;2023-03-23T01:22:41;14.10;99.90
34542;DHT22;20784;51.332;12.410;2023-03-23T01:25:09;14.00;99.90
34542;DHT22;20784;51.332;12.410;2023-03-23T01:27:39;14.10;99.90
34542;DHT22;20784;51.332;12.410;2023-03-23T01:30:07;13.90;99.90
34542;DHT22;20784;51.332;12.410;2023-03-23T01:32:34;13.90;99.90
34542;DHT22;20784;51.332;12.410;2023-03-23T01:35:00;14.00;99.90
34542;DHT22;20784;51.332;12.410;2023-03-23T01:37:26;14.00;99.90
34542;DHT22;20784;51.332;12.410;2023-03-23T01:39:55;14.00;99.90
34542;DHT22;20784;51.332;12.410;2023-03-23T01:42:29;13.90;99.90
34542;DHT22;20784;51.332;12.410;2023-03-23T01:47:40;13.90;99.90
34542;DHT22;20784;51.332;12.410;2023-03-23T01:50:06;13.90;99.90
34542;DHT22;20784;51.332;12.410;2023-03-23T01:52:33;13.90;99.90
34542;DHT22;20784;51.332;12.410;2023-03-23T01:55:02;13.80;99.90
34542;DHT22;20784;51.332;12.410;2023-03-23T01:57:28;13.80;99.90
34542;DHT22;20784;51.332;12.410;2023-03-23T01:59:57;13.80;99.90
34542;DHT22;20784;51.332;12.410;2023-03-23T02:02:24;13.80;99.90
34542;DHT22;20784;51.332;12.410;2023-03-23T02:04:51;13.80;99.90
34542;DHT22;20784;51.332;12.410;2023-03-23T02:07:18;13.70;99.90
34542;DHT22;20784;51.332;12.410;2023-03-23T02:09:45;13.80;99.90
34542;DHT22;20784;51.332;12.410;2023-03-23T02:12:11;13.80;99.90
34542;DHT22;20784;51.332;12.410;2023-03-23T02:14:37;13.80;99.90
34542;DHT22;20784;51.332;12.410;2023-03-23T02:17:29;13.80;99.90
34542;DHT22;20784;51.332;12.410;2023-03-23T02:34:42;13.80;99.90
34542;DHT22;20784;51.332;12.410;2023-03-23T02:37:19;13.80;99.90
34542;DHT22;20784;51.332;12.410;2023-03-23T02:39:54;13.70;99.90
34542;DHT22;20784;51.332;12.410;2023-03-23T02:42:27;13.80;99.90
34542;DHT22;20784;51.332;12.410;2023-03-23T02:44:53;13.80;99.90
34542;DHT22;20784;51.332;12.410;2023-03-23T02:47:25;13.80;99.90
34542;DHT22;20784;51.332;12.410;2023-03-23T02:49:54;13.80;99.90
34542;DHT22;20784;51.332;12.410;2023-03-23T02:52:30;13.70;99.90
34542;DHT22;20784;51.332;12.410;2023-03-23T02:54:57;13.70;99.90
34542;DHT22;20784;51.332;12.410;2023-03-23T02:57:27;13.80;99.90
34542;DHT22;20784;51.332;12.410;2023-03-23T02:59:53;13.80;99.90
34542;DHT22;20784;51.332;12.410;2023-03-23T03:02:28;13.80;99.90
34542;DHT22;20784;51.332;12.410;2023-03-23T03:05:03;13.80;99.90
34542;DHT22;20784;51.332;12.410;2023-03-23T03:11:02;13.80;99.90
34542;DHT22;20784;51.332;12.410;2023-03-23T03:16:08;13.70;99.90
34542;DHT22;20784;51.332;12.410;2023-03-23T03:21:12;13.70;99.90
34542;DHT22;20784;51.332;12.410;2023-03-23T03:23:41;13.70;99.90
34542;DHT22;20784;51.332;12.410;2023-03-23T03:26:11;13.70;99.90
34542;DHT22;20784;51.332;12.410;2023-03-23T03:28:38;13.70;99.90
34542;DHT22;20784;51.332;12.410;2023-03-23T03:31:06;13.60;99.90
34542;DHT22;20784;51.332;12.410;2023-03-23T03:33:32;13.70;99.90
34542;DHT22;20784;51.332;12.410;2023-03-23T03:36:04;13.60;99.90
34542;DHT22;20784;51.332;12.410;2023-03-23T03:38:44;13.70;99.90
34542;DHT22;20784;51.332;12.410;2023-03-23T03:41:11;13.70;99.90
34542;DHT22;20784;51.332;12.410;2023-03-23T03:43:36;13.70;99.90
34542;DHT22;20784;51.332;12.410;2023-03-23T03:46:02;13.70;99.90
34542;DHT22;20784;51.332;12.410;2023-03-23T03:48:28;13.70;99.90
34542;DHT22;20784;51.332;12.410;2023-03-23T03:50:54;13.70;99.90
34542;DHT22;20784;51.332;12.410;2023-03-23T03:53:22;13.70;99.90
34542;DHT22;20784;51.332;12.410;2023-03-23T03:55:49;13.70;99.90
34542;DHT22;20784;51.332;12.410;2023-03-23T03:58:15;13.70;99.90
34542;DHT22;20784;51.332;12.410;2023-03-23T04:00:41;13.70;99.90
34542;DHT22;20784;51.332;12.410;2023-03-23T04:03:07;13.80;99.90
34542;DHT22;20784;51.332;12.410;2023-03-23T04:05:34;13.80;99.90
34542;DHT22;20784;51.332;12.410;2023-03-23T04:08:03;13.80;99.90
34542;DHT22;20784;51.332;12.410;2023-03-23T04:10:31;13.80;99.90
34542;DHT22;20784;51.332;12.410;2023-03-23T04:12:57;13.80;99.90
34542;DHT22;20784;51.332;12.410;2023-03-23T04:15:23;13.90;99.90
34542;DHT22;20784;51.332;12.410;2023-03-23T04:17:49;13.90;99.90
34542;DHT22;20784;51.332;12.410;2023-03-23T04:20:16;13.90;99.90
34542;DHT22;20784;51.332;12.410;2023-03-23T04:22:46;13.90;99.90
34542;DHT22;20784;51.332;12.410;2023-03-23T04:25:15;13.90;99.90
34542;DHT22;20784;51.332;12.410;2023-03-23T04:27:41;14.00;99.90
34542;DHT22;20784;51.332;12.410;2023-03-23T04:30:14;13.90;99.90
34542;DHT22;20784;51.332;12.410;2023-03-23T04:32:40;14.00;99.90
34542;DHT22;20784;51.332;12.410;2023-03-23T04:35:10;14.00;99.90
34542;DHT22;20784;51.332;12.410;2023-03-23T04:37:36;14.00;99.90
34542;DHT22;20784;51.332;12.410;2023-03-23T04:40:03;14.10;99.90
34542;DHT22;20784;51.332;12.410;2023-03-23T04:42:37;14.10;99.90
34542;DHT22;20784;51.332;12.410;2023-03-23T04:45:05;14.00;99.90
34542;DHT22;20784;51.332;12.410;2023-03-23T04:47:34;14.10;99.90
34542;DHT22;20784;51.332;12.410;2023-03-23T04:50:09;14.10;99.90
34542;DHT22;20784;51.332;12.410;2023-03-23T04:52:36;14.10;99.90
34542;DHT22;20784;51.332;12.410;2023-03-23T04:55:04;14.10;99.90
34542;DHT22;20784;51.332;12.410;2023-03-23T04:57:31;14.10;99.90
34542;DHT22;20784;51.332;12.410;2023-03-23T04:59:57;14.10;99.90
34542;DHT22;20784;51.332;12.410;2023-03-23T05:02:23;14.10;99.90
34542;DHT22;20784;51.332;12.410;2023-03-23T05:04:50;14.20;99.90
34542;DHT22;20784;51.332;12.410;2023-03-23T05:07:16;14.10;99.90
34542;DHT22;20784;51.332;12.410;2023-03-23T05:09:41;14.20;99.90
34542;DHT22;20784;51.332;12.410;2023-03-23T05:12:09;14.10;99.90
34542;DHT22;20784;51.332;12.410;2023-03-23T05:14:35;14.10;99.90
34542;DHT22;20784;51.332;12.410;2023-03-23T05:17:06;14.10;99.90
34542;DHT22;20784;51.332;12.410;2023-03-23T05:19:32;14.10;99.90
34542;DHT22;20784;51.332;12.410;2023-03-23T05:22:01;14.10;99.90
34542;DHT22;20784;51.332;12.410;2023-03-23T05:24:33;14.10;99.90
34542;DHT22;20784;51.332;12.410;2023-03-23T05:27:01;14.10;99.90
34542;DHT22;20784;51.332;12.410;2023-03-23T05:29:29;14.00;99.90
34542;DHT22;20784;51.332;12.410;2023-03-23T05:31:56;14.00;99.90
34542;DHT22;20784;51.332;12.410;2023-03-23T05:34:26;14.10;99.90
34542;DHT22;20784;51.332;12.410;2023-03-23T05:37:02;14.00;99.90
34542;DHT22;20784;51.332;12.410;2023-03-23T05:39:31;14.00;99.90
34542;DHT22;20784;51.332;12.410;2023-03-23T05:41:57;14.00;99.90
34542;DHT22;20784;51.332;12.410;2023-03-23T05:44:23;14.10;99.90
34542;DHT22;20784;51.332;12.410;2023-03-23T05:46:49;14.00;99.90
34542;DHT22;20784;51.332;12.410;2023-03-23T05:49:17;14.00;99.90
34542;DHT22;20784;51.332;12.410;2023-03-23T05:51:44;14.00;99.90
34542;DHT22;20784;51.332;12.410;2023-03-23T05:54:11;14.00;99.90
34542;DHT22;20784;51.332;12.410;2023-03-23T05:56:37;13.90;99.90
34542;DHT22;20784;51.332;12.410;2023-03-23T05:59:03;14.00;99.90
34542;DHT22;20784;51.332;12.410;2023-03-23T06:01:29;14.00;99.90
34542;DHT22;20784;51.332;12.410;2023-03-23T06:03:55;13.90;99.90
34542;DHT22;20784;51.332;12.410;2023-03-23T06:06:28;13.90;99.90
34542;DHT22;20784;51.332;12.410;2023-03-23T06:08:55;13.90;99.90
34542;DHT22;20784;51.332;12.410;2023-03-23T06:11:24;14.00;99.90
34542;DHT22;20784;51.332;12.410;2023-03-23T06:13:51;14.00;99.90
34542;DHT22;20784;51.332;12.410;2023-03-23T06:16:17;13.90;99.90
34542;DHT22;20784;51.332;12.410;2023-03-23T06:18:43;13.90;99.90
34542;DHT22;20784;51.332;12.410;2023-03-23T06:21:10;14.00;99.90
34542;DHT22;20784;51.332;12.410;2023-03-23T06:23:36;14.00;99.90
34542;DHT22;20784;51.332;12.410;2023-03-23T06:26:07;13.90;99.90
34542;DHT22;20784;51.332;12.410;2023-03-23T06:28:35;14.00;99.90
34542;DHT22;20784;51.332;12.410;2023-03-23T06:31:05;14.00;99.90
34542;DHT22;20784;51.332;12.410;2023-03-23T06:33:35;14.00;99.90
34542;DHT22;20784;51.332;12.410;2023-03-23T06:36:08;14.00;99.90
34542;DHT22;20784;51.332;12.410;2023-03-23T06:38:42;14.00;99.90
34542;DHT22;20784;51.332;12.410;2023-03-23T06:41:07;13.90;99.90
34542;DHT22;20784;51.332;12.410;2023-03-23T06:43:34;13.90;99.90
34542;DHT22;20784;51.332;12.410;2023-03-23T06:46:07;13.90;99.90
34542;DHT22;20784;51.332;12.410;2023-03-23T06:48:33;13.80;99.90
34542;DHT22;20784;51.332;12.410;2023-03-23T06:50:59;13.80;99.90
34542;DHT22;20784;51.332;12.410;2023-03-23T06:53:25;13.90;99.90
34542;DHT22;20784;51.332;12.410;2023-03-23T06:55:51;13.80;99.90
34542;DHT22;20784;51.332;12.410;2023-03-23T06:58:19;13.80;99.90
34542;DHT22;20784;51.332;12.410;2023-03-23T07:00:47;13.80;99.90
34542;DHT22;20784;51.332;12.410;2023-03-23T07:03:13;13.80;99.90
34542;DHT22;20784;51.332;12.410;2023-03-23T07:05:38;13.80;99.90
34542;DHT22;20784;51.332;12.410;2023-03-23T07:08:05;13.80;99.90
34542;DHT22;20784;51.332;12.410;2023-03-23T07:10:31;13.80;99.90
34542;DHT22;20784;51.332;12.410;2023-03-23T07:12:57;13.80;99.90
34542;DHT22;20784;51.332;12.410;2023-03-23T07:15:24;13.70;99.90
34542;DHT22;20784;51.332;12.410;2023-03-23T07:17:50;13.80;99.90
34542;DHT22;20784;51.332;12.410;2023-03-23T07:20:16;13.80;99.90
34542;DHT22;20784;51.332;12.410;2023-03-23T07:22:42;13.70;99.90
34542;DHT22;20784;51.332;12.410;2023-03-23T07:25:07;13.70;99.90
34542;DHT22;20784;51.332;12.410;2023-03-23T07:27:33;13.60;99.90
34542;DHT22;20784;51.332;12.410;2023-03-23T07:29:59;13.70;99.90
34542;DHT22;20784;51.332;12.410;2023-03-23T07:32:27;13.60;99.90
34542;DHT22;20784;51.332;12.410;2023-03-23T07:34:53;13.70;99.90
34542;DHT22;20784;51.332;12.410;2023-03-23T07:37:19;13.60;99.90
34542;DHT22;20784;51.332;12.410;2023-03-23T07:39:44;13.70;99.90
34542;DHT22;20784;51.332;12.410;2023-03-23T07:42:10;13.70;99.90
34542;DHT22;20784;51.332;12.410;2023-03-23T07:44:43;13.70;99.90
34542;DHT22;20784;51.332;12.410;2023-03-23T07:47:08;13.70;99.90
34542;DHT22;20784;51.332;12.410;2023-03-23T07:49:34;13.70;99.90
34542;DHT22;20784;51.332;12.410;2023-03-23T07:52:01;13.70;99.90
34542;DHT22;20784;51.332;12.410;2023-03-23T07:54:28;13.70;99.90
34542;DHT22;20784;51.332;12.410;2023-03-23T07:56:56;13.70;99.90
34542;DHT22;20784;51.332;12.410;2023-03-23T07:59:22;13.70;99.90
34542;DHT22;20784;51.332;12.410;2023-03-23T08:01:48;13.70;99.90
34542;DHT22;20784;51.332;12.410;2023-03-23T08:04:13;13.80;99.90
34542;DHT22;20784;51.332;12.410;2023-03-23T08:06:41;13.90;99.90
34542;DHT22;20784;51.332;12.410;2023-03-23T08:09:07;13.90;99.90
34542;DHT22;20784;51.332;12.410;2023-03-23T08:11:34;13.90;99.90
34542;DHT22;20784;51.332;12.410;2023-03-23T08:14:00;13.90;99.90
34542;DHT22;20784;51.332;12.410;2023-03-23T08:16:26;14.00;99.90
34542;DHT22;20784;51.332;12.410;2023-03-23T08:18:52;14.00;99.90
34542;DHT22;20784;51.332;12.410;2023-03-23T08:21:18;14.00;99.90
34542;DHT22;20784;51.332;12.410;2023-03-23T08:23:44;14.00;99.90
34542;DHT22;20784;51.332;12.410;2023-03-23T08:26:10;14.10;99.90
34542;DHT22;20784;51.332;12.410;2023-03-23T08:28:37;14.10;99.90
34542;DHT22;20784;51.332;12.410;2023-03-23T08:31:10;14.10;99.90
34542;DHT22;20784;51.332;12.410;2023-03-23T08:33:37;14.10;99.90
34542;DHT22;20784;51.332;12.410;2023-03-23T08:36:03;14.00;99.90
34542;DHT22;20784;51.332;12.410;2023-03-23T08:38:32;14.00;99.90
34542;DHT22;20784;51.332;12.410;2023-03-23T08:41:02;14.00;99.90
34542;DHT22;20784;51.332;12.410;2023-03-23T08:43:30;14.00;99.90
34542;DHT22;20784;51.332;12.410;2023-03-23T08:46:00;14.10;99.90
34542;DHT22;20784;51.332;12.410;2023-03-23T08:48:34;14.10;99.90
34542;DHT22;20784;51.332;12.410;2023-03-23T08:51:03;14.00;99.90
34542;DHT22;20784;51.332;12.410;2023-03-23T08:53:29;14.10;99.90
34542;DHT22;20784;51.332;12.410;2023-03-23T08:56:02;14.20;99.90
34542;DHT22;20784;51.332;12.410;2023-03-23T08:58:28;14.40;99.90
34542;DHT22;20784;51.332;12.410;2023-03-23T09:00:54;14.40;99.90
34542;DHT22;20784;51.332;12.410;2023-03-23T09:03:20;14.60;99.90
34542;DHT22;20784;51.332;12.410;2023-03-23T09:05:48;14.90;99.90
34542;DHT22;20784;51.332;12.410;2023-03-23T09:08:14;15.00;99.90
34542;DHT22;20784;51.332;12.410;2023-03-23T09:10:39;14.90;99.90
34542;DHT22;20784;51.332;12.410;2023-03-23T09:13:05;14.80;99.90
34542;DHT22;20784;51.332;12.410;2023-03-23T09:15:31;14.90;99.90
34542;DHT22;20784;51.332;12.410;2023-03-23T09:17:58;14.90;99.90
34542;DHT22;20784;51.332;12.410;2023-03-23T09:20:26;14.90;99.90
34542;DHT22;20784;51.332;12.410;2023-03-23T09:22:53;15.10;99.90
34542;DHT22;20784;51.332;12.410;2023-03-23T09:25:22;15.20;99.90
34542;DHT22;20784;51.332;12.410;2023-03-23T09:27:51;15.20;99.90
34542;DHT22;20784;51.332;12.410;2023-03-23T09:30:23;15.30;99.90
34542;DHT22;20784;51.332;12.410;2023-03-23T09:32:49;15.40;99.90
34542;DHT22;20784;51.332;12.410;2023-03-23T09:35:23;15.40;99.90
34542;DHT22;20784;51.332;12.410;2023-03-23T09:37:52;15.40;99.90
34542;DHT22;20784;51.332;12.410;2023-03-23T09:40:50;15.30;99.90
34542;DHT22;20784;51.332;12.410;2023-03-23T09:46:16;15.30;99.90
34542;DHT22;20784;51.332;12.410;2023-03-23T09:48:53;15.40;99.90
34542;DHT22;20784;51.332;12.410;2023-03-23T09:51:38;15.40;99.90
34542;DHT22;20784;51.332;12.410;2023-03-23T09:54:27;15.50;99.90
34542;DHT22;20784;51.332;12.410;2023-03-23T09:57:01;15.60;99.90
34542;DHT22;20784;51.332;12.410;2023-03-23T10:02:40;15.40;99.90
34542;DHT22;20784;51.332;12.410;2023-03-23T10:05:36;15.40;99.90
34542;DHT22;20784;51.332;12.410;2023-03-23T10:08:13;15.40;99.90
34542;DHT22;20784;51.332;12.410;2023-03-23T10:11:04;15.50;99.90
34542;DHT22;20784;51.332;12.410;2023-03-23T10:13:50;15.50;99.90
34542;DHT22;20784;51.332;12.410;2023-03-23T10:16:27;15.50;99.90
34542;DHT22;20784;51.332;12.410;2023-03-23T10:21:30;15.50;99.90
34542;DHT22;20784;51.332;12.410;2023-03-23T10:23:59;15.60;99.90
34542;DHT22;20784;51.332;12.410;2023-03-23T10:26:44;15.60;99.90
34542;DHT22;20784;51.332;12.410;2023-03-23T10:29:21;15.70;99.90
34542;DHT22;20784;51.332;12.410;2023-03-23T10:31:57;15.70;99.90
34542;DHT22;20784;51.332;12.410;2023-03-23T10:40:03;15.90;99.90
34542;DHT22;20784;51.332;12.410;2023-03-23T10:42:37;16.00;99.90
34542;DHT22;20784;51.332;12.410;2023-03-23T10:45:24;16.10;99.90
34542;DHT22;20784;51.332;12.410;2023-03-23T10:50:42;16.10;99.90
34542;DHT22;20784;51.332;12.410;2023-03-23T10:53:25;16.10;99.90
34542;DHT22;20784;51.332;12.410;2023-03-23T10:55:53;16.00;99.90
34542;DHT22;20784;51.332;12.410;2023-03-23T10:58:35;16.00;99.90
34542;DHT22;20784;51.332;12.410;2023-03-23T11:01:04;16.00;99.90
34542;DHT22;20784;51.332;12.410;2023-03-23T11:03:38;16.00;99.90
34542;DHT22;20784;51.332;12.410;2023-03-23T11:06:09;16.00;99.90
34542;DHT22;20784;51.332;12.410;2023-03-23T11:09:13;16.20;99.90
34542;DHT22;20784;51.332;12.410;2023-03-23T11:11:39;16.10;99.90
34542;DHT22;20784;51.332;12.410;2023-03-23T11:16:52;16.20;99.90
34542;DHT22;20784;51.332;12.410;2023-03-23T11:19:30;16.30;99.90
34542;DHT22;20784;51.332;12.410;2023-03-23T11:22:24;16.30;99.90
34542;DHT22;20784;51.332;12.410;2023-03-23T11:24:58;16.20;99.90
34542;DHT22;20784;51.332;12.410;2023-03-23T11:27:27;16.40;99.90
34542;DHT22;20784;51.332;12.410;2023-03-23T11:29:55;16.30;99.90
34542;DHT22;20784;51.332;12.410;2023-03-23T11:32:28;16.30;99.90
34542;DHT22;20784;51.332;12.410;2023-03-23T11:34:58;16.20;99.90
34542;DHT22;20784;51.332;12.410;2023-03-23T11:37:46;16.30;99.90
34542;DHT22;20784;51.332;12.410;2023-03-23T11:42:44;16.00;99.90
34542;DHT22;20784;51.332;12.410;2023-03-23T11:48:12;16.00;99.90
34542;DHT22;20784;51.332;12.410;2023-03-23T11:50:57;15.80;99.90
34542;DHT22;20784;51.332;12.410;2023-03-23T11:56:35;15.90;99.90
34542;DHT22;20784;51.332;12.410;2023-03-23T11:59:05;16.00;99.90
34542;DHT22;20784;51.332;12.410;2023-03-23T12:13:00;16.30;99.90
34542;DHT22;20784;51.332;12.410;2023-03-23T12:15:45;16.40;99.90
34542;DHT22;20784;51.332;12.410;2023-03-23T12:23:48;16.50;99.90
34542;DHT22;20784;51.332;12.410;2023-03-23T12:26:17;16.60;99.90
34542;DHT22;20784;51.332;12.410;2023-03-23T12:48:31;17.00;99.90
34542;DHT22;20784;51.332;12.410;2023-03-23T12:51:08;17.10;99.90
34542;DHT22;20784;51.332;12.410;2023-03-23T12:53:52;17.20;99.90
34542;DHT22;20784;51.332;12.410;2023-03-23T12:56:31;17.20;99.90
34542;DHT22;20784;51.332;12.410;2023-03-23T12:59:12;17.20;99.90
34542;DHT22;20784;51.332;12.410;2023-03-23T13:02:03;17.40;99.90
34542;DHT22;20784;51.332;12.410;2023-03-23T13:04:35;17.30;99.90
34542;DHT22;20784;51.332;12.410;2023-03-23T13:07:06;17.40;99.90
34542;DHT22;20784;51.332;12.410;2023-03-23T13:12:09;17.50;99.90
34542;DHT22;20784;51.332;12.410;2023-03-23T13:15:15;17.60;99.90
34542;DHT22;20784;51.332;12.410;2023-03-23T13:23:28;17.70;99.90
34542;DHT22;20784;51.332;12.410;2023-03-23T13:26:05;17.60;99.90
34542;DHT22;20784;51.332;12.410;2023-03-23T13:28:56;17.50;99.90
34542;DHT22;20784;51.332;12.410;2023-03-23T13:33:53;17.40;99.90
34542;DHT22;20784;51.332;12.410;2023-03-23T13:36:35;17.30;99.90
34542;DHT22;20784;51.332;12.410;2023-03-23T13:39:04;17.10;99.90
34542;DHT22;20784;51.332;12.410;2023-03-23T13:41:45;17.00;99.90
34542;DHT22;20784;51.332;12.410;2023-03-23T13:46:57;16.70;99.90
34542;DHT22;20784;51.332;12.410;2023-03-23T13:49:32;16.50;99.90
34542;DHT22;20784;51.332;12.410;2023-03-23T13:52:14;16.40;99.90
34542;DHT22;20784;51.332;12.410;2023-03-23T13:54:45;16.40;99.90
34542;DHT22;20784;51.332;12.410;2023-03-23T13:57:26;16.40;99.90
34542;DHT22;20784;51.332;12.410;2023-03-23T13:59:59;16.40;99.90
34542;DHT22;20784;51.332;12.410;2023-03-23T14:02:40;16.30;99.90
34542;DHT22;20784;51.332;12.410;2023-03-23T14:07:58;16.30;99.90
34542;DHT22;20784;51.332;12.410;2023-03-23T14:10:59;16.30;99.90
34542;DHT22;20784;51.332;12.410;2023-03-23T14:16:02;16.20;99.90
34542;DHT22;20784;51.332;12.410;2023-03-23T14:21:26;16.10;99.90
34542;DHT22;20784;51.332;12.410;2023-03-23T14:23:51;16.10;99.90
34542;DHT22;20784;51.332;12.410;2023-03-23T14:26:22;16.00;99.90
34542;DHT22;20784;51.332;12.410;2023-03-23T14:28:50;16.00;99.90
34542;DHT22;20784;51.332;12.410;2023-03-23T14:31:32;16.10;99.90
34542;DHT22;20784;51.332;12.410;2023-03-23T14:34:03;16.10;99.90
34542;DHT22;20784;51.332;12.410;2023-03-23T14:36:34;16.00;99.90
34542;DHT22;20784;51.332;12.410;2023-03-23T14:41:32;16.00;99.90
34542;DHT22;20784;51.332;12.410;2023-03-23T14:44:01;16.10;99.90
34542;DHT22;20784;51.332;12.410;2023-03-23T14:46:38;16.10;99.90
34542;DHT22;20784;51.332;12.410;2023-03-23T14:49:24;16.10;99.90
34542;DHT22;20784;51.332;12.410;2023-03-23T14:51:53;16.10;99.90
34542;DHT22;20784;51.332;12.410;2023-03-23T14:54:28;16.10;99.90
34542;DHT22;20784;51.332;12.410;2023-03-23T14:57:08;16.00;99.90
34542;DHT22;20784;51.332;12.410;2023-03-23T14:59:36;15.90;99.90
34542;DHT22;20784;51.332;12.410;2023-03-23T15:02:04;16.00;99.90
34542;DHT22;20784;51.332;12.410;2023-03-23T15:04:30;16.00;99.90
34542;DHT22;20784;51.332;12.410;2023-03-23T15:07:00;15.90;99.90
34542;DHT22;20784;51.332;12.410;2023-03-23T15:09:27;16.00;99.90
34542;DHT22;20784;51.332;12.410;2023-03-23T15:12:02;16.10;99.90
34542;DHT22;20784;51.332;12.410;2023-03-23T15:14:47;16.00;99.90
34542;DHT22;20784;51.332;12.410;2023-03-23T15:17:27;15.90;99.90
34542;DHT22;20784;51.332;12.410;2023-03-23T15:19:54;15.80;99.90
34542;DHT22;20784;51.332;12.410;2023-03-23T15:22:30;15.90;99.90
34542;DHT22;20784;51.332;12.410;2023-03-23T15:25:23;15.80;99.90
34542;DHT22;20784;51.332;12.410;2023-03-23T15:28:14;15.70;99.90
34542;DHT22;20784;51.332;12.410;2023-03-23T15:30:55;15.70;99.90
34542;DHT22;20784;51.332;12.410;2023-03-23T15:33:26;15.70;99.90
34542;DHT22;20784;51.332;12.410;2023-03-23T15:35:59;15.70;99.90
34542;DHT22;20784;51.332;12.410;2023-03-23T15:38:33;15.70;99.90
34542;DHT22;20784;51.332;12.410;2023-03-23T15:41:05;15.70;99.90
34542;DHT22;20784;51.332;12.410;2023-03-23T15:43:48;15.70;99.90
34542;DHT22;20784;51.332;12.410;2023-03-23T15:51:17;15.70;99.90
34542;DHT22;20784;51.332;12.410;2023-03-23T15:53:43;15.80;99.90
34542;DHT22;20784;51.332;12.410;2023-03-23T15:56:10;15.70;99.90
34542;DHT22;20784;51.332;12.410;2023-03-23T15:58:37;15.60;99.90
34542;DHT22;20784;51.332;12.410;2023-03-23T16:01:27;15.60;99.90
34542;DHT22;20784;51.332;12.410;2023-03-23T16:04:05;15.60;99.90
34542;DHT22;20784;51.332;12.410;2023-03-23T16:06:33;15.50;99.90
34542;DHT22;20784;51.332;12.410;2023-03-23T16:08:59;15.50;99.90
34542;DHT22;20784;51.332;12.410;2023-03-23T16:11:28;15.60;99.90
34542;DHT22;20784;51.332;12.410;2023-03-23T16:13:54;15.60;99.90
34542;DHT22;20784;51.332;12.410;2023-03-23T16:16:39;15.60;99.90
34542;DHT22;20784;51.332;12.410;2023-03-23T16:19:07;15.60;99.90
34542;DHT22;20784;51.332;12.410;2023-03-23T16:21:36;15.60;99.90
34542;DHT22;20784;51.332;12.410;2023-03-23T16:24:02;15.70;99.90
34542;DHT22;20784;51.332;12.410;2023-03-23T16:26:27;15.70;99.90
34542;DHT22;20784;51.332;12.410;2023-03-23T16:28:53;15.70;99.90
34542;DHT22;20784;51.332;12.410;2023-03-23T16:31:22;15.70;99.90
34542;DHT22;20784;51.332;12.410;2023-03-23T16:33:51;15.70;99.90
34542;DHT22;20784;51.332;12.410;2023-03-23T16:36:19;15.60;99.90
34542;DHT22;20784;51.332;12.410;2023-03-23T16:38:48;15.50;99.90
34542;DHT22;20784;51.332;12.410;2023-03-23T16:41:17;15.50;99.90
34542;DHT22;20784;51.332;12.410;2023-03-23T16:43:43;15.50;99.90
34542;DHT22;20784;51.332;12.410;2023-03-23T16:46:09;15.50;99.90
34542;DHT22;20784;51.332;12.410;2023-03-23T16:48:39;15.50;99.90
34542;DHT22;20784;51.332;12.410;2023-03-23T16:51:05;15.40;99.90
34542;DHT22;20784;51.332;12.410;2023-03-23T16:53:31;15.40;99.90
34542;DHT22;20784;51.332;12.410;2023-03-23T16:56:01;15.40;99.90
34542;DHT22;20784;51.332;12.410;2023-03-23T16:58:29;15.30;99.90
34542;DHT22;20784;51.332;12.410;2023-03-23T17:00:55;15.40;99.90
34542;DHT22;20784;51.332;12.410;2023-03-23T17:03:21;15.40;99.90
34542;DHT22;20784;51.332;12.410;2023-03-23T17:05:50;15.30;99.90
34542;DHT22;20784;51.332;12.410;2023-03-23T17:08:17;15.30;99.90
34542;DHT22;20784;51.332;12.410;2023-03-23T17:10:43;15.30;99.90
34542;DHT22;20784;51.332;12.410;2023-03-23T17:13:10;15.30;99.90
34542;DHT22;20784;51.332;12.410;2023-03-23T17:15:37;15.30;99.90
34542;DHT22;20784;51.332;12.410;2023-03-23T17:18:04;15.20;99.90
34542;DHT22;20784;51.332;12.410;2023-03-23T17:20:32;15.10;99.90
34542;DHT22;20784;51.332;12.410;2023-03-23T17:22:58;15.10;99.90
34542;DHT22;20784;51.332;12.410;2023-03-23T17:25:27;15.00;99.90
34542;DHT22;20784;51.332;12.410;2023-03-23T17:27:54;15.00;99.90
34542;DHT22;20784;51.332;12.410;2023-03-23T17:30:20;15.00;99.90
34542;DHT22;20784;51.332;12.410;2023-03-23T17:32:46;14.90;99.90
34542;DHT22;20784;51.332;12.410;2023-03-23T17:35:16;14.90;99.90